sensor_id;sensor_type;location;lat;lon;timestamp;pressure;altitude;pressure_sealevel;temperature;humidity
8477;BME280;4275;42.854;23.222;2024-01-11T00:00:42;38473.25;;;-141.02;100.00
8477;BME280;4275;42.854;23.222;2024-01-11T00:03:09;38500.09;;;-141.02;100.00
8477;BME280;4275;42.854;23.222;2024-01-11T00:05:37;38502.03;;;-141.02;100.00
8477;BME280;4275;42.854;23.222;2024-01-11T00:08:05;38492.44;;;-141.02;100.00
8477;BME280;4275;42.854;23.222;2024-01-11T00:10:32;38477.09;;;-141.02;100.00
8477;BME280;4275;42.854;23.222;2024-01-11T00:12:58;38446.41;;;-141.02;100.00
8477;BME280;4275;42.854;23.222;2024-01-11T00:15:25;38411.91;;;-141.02;100.00
8477;BME280;4275;42.854;23.222;2024-01-11T00:17:52;38450.25;;;-141.02;100.00
8477;BME280;4275;42.854;23.222;2024-01-11T00:20:19;38465.59;;;-141.02;100.00
8477;BME280;4275;42.854;23.222;2024-01-11T00:22:48;38446.41;;;-141.02;100.00
8477;BME280;4275;42.854;23.222;2024-01-11T00:25:14;38408.06;;;-141.02;100.00
8477;BME280;4275;42.854;23.222;2024-01-11T00:27:41;38446.41;;;-141.02;100.00
8477;BME280;4275;42.854;23.222;2024-01-11T00:30:08;38488.59;;;-141.02;100.00
8477;BME280;4275;42.854;23.222;2024-01-11T00:32:35;38484.75;;;-141.02;100.00
8477;BME280;4275;42.854;23.222;2024-01-11T00:35:03;38461.75;;;-141.02;100.00
8477;BME280;4275;42.854;23.222;2024-01-11T00:37:30;38475.19;;;-141.02;100.00
8477;BME280;4275;42.854;23.222;2024-01-11T00:39:58;38446.41;;;-141.02;100.00
8477;BME280;4275;42.854;23.222;2024-01-11T00:42:25;38431.09;;;-141.02;100.00
8477;BME280;4275;42.854;23.222;2024-01-11T00:44:52;38431.09;;;-141.02;100.00
8477;BME280;4275;42.854;23.222;2024-01-11T00:47:19;38377.41;;;-141.02;100.00
8477;BME280;4275;42.854;23.222;2024-01-11T00:49:46;38423.41;;;-141.02;100.00
8477;BME280;4275;42.854;23.222;2024-01-11T00:52:13;38394.66;;;-141.02;100.00
8477;BME280;4275;42.854;23.222;2024-01-11T00:54:40;38392.75;;;-141.02;100.00
8477;BME280;4275;42.854;23.222;2024-01-11T00:57:08;38408.06;;;-141.02;100.00
8477;BME280;4275;42.854;23.222;2024-01-11T00:59:35;38413.81;;;-141.02;100.00
8477;BME280;4275;42.854;23.222;2024-01-11T01:02:02;38396.56;;;-141.02;100.00
8477;BME280;4275;42.854;23.222;2024-01-11T01:04:29;38408.06;;;-141.02;100.00
8477;BME280;4275;42.854;23.222;2024-01-11T01:06:57;38434.91;;;-141.02;100.00
8477;BME280;4275;42.854;23.222;2024-01-11T01:09:24;38457.91;;;-141.02;100.00
8477;BME280;4275;42.854;23.222;2024-01-11T01:11:51;38471.34;;;-141.02;100.00
8477;BME280;4275;42.854;23.222;2024-01-11T01:14:19;38438.75;;;-141.02;100.00
8477;BME280;4275;42.854;23.222;2024-01-11T01:16:46;38469.44;;;-141.02;100.00
8477;BME280;4275;42.854;23.222;2024-01-11T01:19:13;38438.75;;;-141.02;100.00
8477;BME280;4275;42.854;23.222;2024-01-11T01:21:40;38457.91;;;-141.02;100.00
8477;BME280;4275;42.854;23.222;2024-01-11T01:24:06;38411.91;;;-141.02;100.00
8477;BME280;4275;42.854;23.222;2024-01-11T01:26:34;38442.59;;;-141.02;100.00
8477;BME280;4275;42.854;23.222;2024-01-11T01:29:01;38442.59;;;-141.02;100.00
8477;BME280;4275;42.854;23.222;2024-01-11T01:31:29;38457.91;;;-141.02;100.00
8477;BME280;4275;42.854;23.222;2024-01-11T01:34:02;38488.59;;;-141.02;100.00
8477;BME280;4275;42.854;23.222;2024-01-11T01:36:29;38457.91;;;-141.02;100.00
8477;BME280;4275;42.854;23.222;2024-01-11T01:38:56;38434.91;;;-141.02;100.00
8477;BME280;4275;42.854;23.222;2024-01-11T01:41:23;38442.59;;;-141.02;100.00
8477;BME280;4275;42.854;23.222;2024-01-11T01:43:50;38444.50;;;-141.02;100.00
8477;BME280;4275;42.854;23.222;2024-01-11T01:46:22;38457.91;;;-141.02;100.00
8477;BME280;4275;42.854;23.222;2024-01-11T01:48:51;38427.25;;;-141.02;100.00
8477;BME280;4275;42.854;23.222;2024-01-11T01:51:20;38438.75;;;-141.02;100.00
8477;BME280;4275;42.854;23.222;2024-01-11T01:53:48;38459.84;;;-141.02;100.00
8477;BME280;4275;42.854;23.222;2024-01-11T01:56:17;38408.06;;;-141.02;100.00
8477;BME280;4275;42.854;23.222;2024-01-11T01:58:45;38465.59;;;-141.02;100.00
8477;BME280;4275;42.854;23.222;2024-01-11T02:01:13;38434.91;;;-141.02;100.00
8477;BME280;4275;42.854;23.222;2024-01-11T02:03:41;38473.25;;;-141.02;100.00
8477;BME280;4275;42.854;23.222;2024-01-11T02:06:09;38482.84;;;-141.02;100.00
8477;BME280;4275;42.854;23.222;2024-01-11T02:08:36;38473.25;;;-141.02;100.00
8477;BME280;4275;42.854;23.222;2024-01-11T02:11:05;38431.09;;;-141.02;100.00
8477;BME280;4275;42.854;23.222;2024-01-11T02:13:32;38434.91;;;-141.02;100.00
8477;BME280;4275;42.854;23.222;2024-01-11T02:15:59;38465.59;;;-141.02;100.00
8477;BME280;4275;42.854;23.222;2024-01-11T02:18:26;38431.09;;;-141.02;100.00
8477;BME280;4275;42.854;23.222;2024-01-11T02:20:54;38408.06;;;-141.02;100.00
8477;BME280;4275;42.854;23.222;2024-01-11T02:23:24;38465.59;;;-141.02;100.00
8477;BME280;4275;42.854;23.222;2024-01-11T02:25:54;38421.50;;;-141.02;100.00
8477;BME280;4275;42.854;23.222;2024-01-11T02:28:21;38419.56;;;-141.02;100.00
8477;BME280;4275;42.854;23.222;2024-01-11T02:30:48;38459.84;;;-141.02;100.00
8477;BME280;4275;42.854;23.222;2024-01-11T02:33:15;38423.41;;;-141.02;100.00
8477;BME280;4275;42.854;23.222;2024-01-11T02:35:44;38434.91;;;-141.02;100.00
8477;BME280;4275;42.854;23.222;2024-01-11T02:38:11;38415.75;;;-141.02;100.00
8477;BME280;4275;42.854;23.222;2024-01-11T02:40:38;38448.34;;;-141.02;100.00
8477;BME280;4275;42.854;23.222;2024-01-11T02:43:11;38396.56;;;-141.02;100.00
8477;BME280;4275;42.854;23.222;2024-01-11T02:45:38;38423.41;;;-141.02;100.00
8477;BME280;4275;42.854;23.222;2024-01-11T02:48:05;38390.81;;;-141.02;100.00
8477;BME280;4275;42.854;23.222;2024-01-11T02:50:32;38408.06;;;-141.02;100.00
8477;BME280;4275;42.854;23.222;2024-01-11T02:52:59;38408.06;;;-141.02;100.00
8477;BME280;4275;42.854;23.222;2024-01-11T02:55:26;38411.91;;;-141.02;100.00
8477;BME280;4275;42.854;23.222;2024-01-11T02:57:53;38396.56;;;-141.02;100.00
8477;BME280;4275;42.854;23.222;2024-01-11T03:00:21;38419.56;;;-141.02;100.00
8477;BME280;4275;42.854;23.222;2024-01-11T03:02:48;38411.91;;;-141.02;100.00
8477;BME280;4275;42.854;23.222;2024-01-11T03:05:15;38415.75;;;-141.02;100.00
8477;BME280;4275;42.854;23.222;2024-01-11T03:07:42;38392.75;;;-141.02;100.00
8477;BME280;4275;42.854;23.222;2024-01-11T03:10:09;38408.06;;;-141.02;100.00
8477;BME280;4275;42.854;23.222;2024-01-11T03:12:36;38373.56;;;-141.02;100.00
8477;BME280;4275;42.854;23.222;2024-01-11T03:15:04;38419.56;;;-141.02;100.00
8477;BME280;4275;42.854;23.222;2024-01-11T03:17:32;38415.75;;;-141.02;100.00
8477;BME280;4275;42.854;23.222;2024-01-11T03:19:59;38442.59;;;-141.02;100.00
8477;BME280;4275;42.854;23.222;2024-01-11T03:22:26;38438.75;;;-141.02;100.00
8477;BME280;4275;42.854;23.222;2024-01-11T03:24:53;38446.41;;;-141.02;100.00
8477;BME280;4275;42.854;23.222;2024-01-11T03:27:20;38452.16;;;-141.02;100.00
8477;BME280;4275;42.854;23.222;2024-01-11T03:29:47;38471.34;;;-141.02;100.00
8477;BME280;4275;42.854;23.222;2024-01-11T03:32:15;38488.59;;;-141.02;100.00
8477;BME280;4275;42.854;23.222;2024-01-11T03:34:43;38465.59;;;-141.02;100.00
8477;BME280;4275;42.854;23.222;2024-01-11T03:37:10;38480.94;;;-141.02;100.00
8477;BME280;4275;42.854;23.222;2024-01-11T03:39:37;38457.91;;;-141.02;100.00
8477;BME280;4275;42.854;23.222;2024-01-11T03:42:04;38463.69;;;-141.02;100.00
8477;BME280;4275;42.854;23.222;2024-01-11T03:44:31;38461.75;;;-141.02;100.00
8477;BME280;4275;42.854;23.222;2024-01-11T03:46:58;38496.28;;;-141.02;100.00
8477;BME280;4275;42.854;23.222;2024-01-11T03:49:25;38469.44;;;-141.02;100.00
8477;BME280;4275;42.854;23.222;2024-01-11T03:51:54;38442.59;;;-141.02;100.00
8477;BME280;4275;42.854;23.222;2024-01-11T03:54:21;38446.41;;;-141.02;100.00
8477;BME280;4275;42.854;23.222;2024-01-11T03:56:48;38406.16;;;-141.02;100.00
8477;BME280;4275;42.854;23.222;2024-01-11T03:59:15;38446.41;;;-141.02;100.00
8477;BME280;4275;42.854;23.222;2024-01-11T04:01:42;38448.34;;;-141.02;100.00
8477;BME280;4275;42.854;23.222;2024-01-11T04:04:10;38480.94;;;-141.02;100.00
8477;BME280;4275;42.854;23.222;2024-01-11T04:06:37;38450.25;;;-141.02;100.00
8477;BME280;4275;42.854;23.222;2024-01-11T04:09:06;38488.59;;;-141.02;100.00
8477;BME280;4275;42.854;23.222;2024-01-11T04:11:33;38469.44;;;-141.02;100.00
8477;BME280;4275;42.854;23.222;2024-01-11T04:14:00;38473.25;;;-141.02;100.00
8477;BME280;4275;42.854;23.222;2024-01-11T04:16:27;38471.34;;;-141.02;100.00
8477;BME280;4275;42.854;23.222;2024-01-11T04:18:54;38465.59;;;-141.02;100.00
8477;BME280;4275;42.854;23.222;2024-01-11T04:21:22;38446.41;;;-141.02;100.00
8477;BME280;4275;42.854;23.222;2024-01-11T04:23:49;38505.84;;;-141.02;100.00
8477;BME280;4275;42.854;23.222;2024-01-11T04:26:17;38469.44;;;-141.02;100.00
8477;BME280;4275;42.854;23.222;2024-01-11T04:28:44;38446.41;;;-141.02;100.00
8477;BME280;4275;42.854;23.222;2024-01-11T04:31:12;38448.34;;;-141.02;100.00
8477;BME280;4275;42.854;23.222;2024-01-11T04:33:40;38457.91;;;-141.02;100.00
8477;BME280;4275;42.854;23.222;2024-01-11T04:36:07;38419.56;;;-141.02;100.00
8477;BME280;4275;42.854;23.222;2024-01-11T04:38:35;38461.75;;;-141.02;100.00
8477;BME280;4275;42.854;23.222;2024-01-11T04:41:03;38457.91;;;-141.02;100.00
8477;BME280;4275;42.854;23.222;2024-01-11T04:43:36;38446.41;;;-141.02;100.00
8477;BME280;4275;42.854;23.222;2024-01-11T04:46:03;38419.56;;;-141.02;100.00
8477;BME280;4275;42.854;23.222;2024-01-11T04:48:30;38431.09;;;-141.02;100.00
8477;BME280;4275;42.854;23.222;2024-01-11T04:50:57;38454.09;;;-141.02;100.00
8477;BME280;4275;42.854;23.222;2024-01-11T04:53:24;38465.59;;;-141.02;100.00
8477;BME280;4275;42.854;23.222;2024-01-11T04:55:51;38461.75;;;-141.02;100.00
8477;BME280;4275;42.854;23.222;2024-01-11T04:58:18;38454.09;;;-141.02;100.00
8477;BME280;4275;42.854;23.222;2024-01-11T05:00:47;38494.34;;;-141.02;100.00
8477;BME280;4275;42.854;23.222;2024-01-11T05:03:13;38526.94;;;-141.02;100.00
8477;BME280;4275;42.854;23.222;2024-01-11T05:05:41;38494.34;;;-141.02;100.00
8477;BME280;4275;42.854;23.222;2024-01-11T05:08:08;38507.78;;;-141.02;100.00
8477;BME280;4275;42.854;23.222;2024-01-11T05:10:35;38500.09;;;-141.02;100.00
8477;BME280;4275;42.854;23.222;2024-01-11T05:13:03;38500.09;;;-141.02;100.00
8477;BME280;4275;42.854;23.222;2024-01-11T05:15:30;38525.03;;;-141.02;100.00
8477;BME280;4275;42.854;23.222;2024-01-11T05:17:58;38546.13;;;-141.02;100.00
8477;BME280;4275;42.854;23.222;2024-01-11T05:20:25;38523.09;;;-141.02;100.00
8477;BME280;4275;42.854;23.222;2024-01-11T05:22:52;38515.44;;;-141.02;100.00
8477;BME280;4275;42.854;23.222;2024-01-11T05:25:19;38500.09;;;-141.02;100.00
8477;BME280;4275;42.854;23.222;2024-01-11T05:27:46;38528.84;;;-141.02;100.00
8477;BME280;4275;42.854;23.222;2024-01-11T05:30:13;38549.94;;;-141.02;100.00
8477;BME280;4275;42.854;23.222;2024-01-11T05:32:41;38580.63;;;-141.02;100.00
8477;BME280;4275;42.854;23.222;2024-01-11T05:35:09;38590.22;;;-141.02;100.00
8477;BME280;4275;42.854;23.222;2024-01-11T05:37:36;38653.50;;;-141.02;100.00
8477;BME280;4275;42.854;23.222;2024-01-11T05:40:04;38734.03;;;-141.02;100.00
8477;BME280;4275;42.854;23.222;2024-01-11T05:42:31;38772.38;;;-141.02;100.00
8477;BME280;4275;42.854;23.222;2024-01-11T05:44:58;38845.22;;;-141.02;100.00
8477;BME280;4275;42.854;23.222;2024-01-11T05:47:25;38908.50;;;-141.02;100.00
8477;BME280;4275;42.854;23.222;2024-01-11T05:49:52;38989.03;;;-141.02;100.00
8477;BME280;4275;42.854;23.222;2024-01-11T05:52:20;39040.81;;;-141.02;100.00
8477;BME280;4275;42.854;23.222;2024-01-11T05:54:47;39115.59;;;-141.02;100.00
8477;BME280;4275;42.854;23.222;2024-01-11T05:57:14;39159.72;;;-141.02;100.00
8477;BME280;4275;42.854;23.222;2024-01-11T05:59:43;39253.69;;;-141.02;100.00
8477;BME280;4275;42.854;23.222;2024-01-11T06:02:11;39351.47;;;-141.02;100.00
8477;BME280;4275;42.854;23.222;2024-01-11T06:04:37;39489.56;;;-141.02;100.00
8477;BME280;4275;42.854;23.222;2024-01-11T06:07:04;39631.47;;;-141.02;100.00
8477;BME280;4275;42.854;23.222;2024-01-11T06:09:33;39715.88;;;-141.02;100.00
8477;BME280;4275;42.854;23.222;2024-01-11T06:12:00;39804.09;;;-141.02;100.00
8477;BME280;4275;42.854;23.222;2024-01-11T06:14:27;39760.00;;;-141.02;100.00
8477;BME280;4275;42.854;23.222;2024-01-11T06:16:54;39752.31;;;-141.02;100.00
8477;BME280;4275;42.854;23.222;2024-01-11T06:19:21;39838.63;;;-141.02;100.00
8477;BME280;4275;42.854;23.222;2024-01-11T06:21:48;39800.25;;;-141.02;100.00
8477;BME280;4275;42.854;23.222;2024-01-11T06:24:14;39792.59;;;-141.02;100.00
8477;BME280;4275;42.854;23.222;2024-01-11T06:26:43;39811.78;;;-141.02;100.00
8477;BME280;4275;42.854;23.222;2024-01-11T06:29:10;39838.63;;;-141.02;100.00
8477;BME280;4275;42.854;23.222;2024-01-11T06:31:37;39830.94;;;-141.02;100.00
8477;BME280;4275;42.854;23.222;2024-01-11T06:34:04;39834.78;;;-141.02;100.00
8477;BME280;4275;42.854;23.222;2024-01-11T06:36:31;39903.84;;;-141.02;100.00
8477;BME280;4275;42.854;23.222;2024-01-11T06:38:58;39852.06;;;-141.02;100.00
8477;BME280;4275;42.854;23.222;2024-01-11T06:41:25;39842.47;;;-141.02;100.00
8477;BME280;4275;42.854;23.222;2024-01-11T06:43:53;39949.88;;;-141.02;100.00
8477;BME280;4275;42.854;23.222;2024-01-11T06:46:20;40279.81;;;-141.02;100.00
8477;BME280;4275;42.854;23.222;2024-01-11T06:48:47;40314.34;;;-141.02;100.00
8477;BME280;4275;42.854;23.222;2024-01-11T06:51:15;40306.66;;;-141.02;100.00
8477;BME280;4275;42.854;23.222;2024-01-11T06:53:42;40272.13;;;-141.02;100.00
8477;BME280;4275;42.854;23.222;2024-01-11T06:56:15;40298.97;;;-141.02;100.00
8477;BME280;4275;42.854;23.222;2024-01-11T06:58:43;40331.59;;;-141.02;100.00
8477;BME280;4275;42.854;23.222;2024-01-11T07:01:12;40318.16;;;-141.02;100.00
8477;BME280;4275;42.854;23.222;2024-01-11T07:03:39;40350.78;;;-141.02;100.00
8477;BME280;4275;42.854;23.222;2024-01-11T07:06:06;40337.34;;;-141.02;100.00
8477;BME280;4275;42.854;23.222;2024-01-11T07:08:33;40369.97;;;-141.02;100.00
8477;BME280;4275;42.854;23.222;2024-01-11T07:11:00;40318.16;;;-141.02;100.00
8477;BME280;4275;42.854;23.222;2024-01-11T07:13:28;40345.03;;;-141.02;100.00
8477;BME280;4275;42.854;23.222;2024-01-11T07:15:55;40333.50;;;-141.02;100.00
8477;BME280;4275;42.854;23.222;2024-01-11T07:18:24;40297.06;;;-141.02;100.00
8477;BME280;4275;42.854;23.222;2024-01-11T07:20:52;40298.97;;;-141.02;100.00
8477;BME280;4275;42.854;23.222;2024-01-11T07:23:18;40298.97;;;-141.02;100.00
8477;BME280;4275;42.854;23.222;2024-01-11T07:25:45;40310.50;;;-141.02;100.00
8477;BME280;4275;42.854;23.222;2024-01-11T07:28:12;40325.84;;;-141.02;100.00
8477;BME280;4275;42.854;23.222;2024-01-11T07:30:39;40298.97;;;-141.02;100.00
8477;BME280;4275;42.854;23.222;2024-01-11T07:33:06;40360.38;;;-141.02;100.00
8477;BME280;4275;42.854;23.222;2024-01-11T07:35:36;40396.81;;;-141.02;100.00
8477;BME280;4275;42.854;23.222;2024-01-11T07:38:03;40337.34;;;-141.02;100.00
8477;BME280;4275;42.854;23.222;2024-01-11T07:40:30;40383.38;;;-141.02;100.00
8477;BME280;4275;42.854;23.222;2024-01-11T07:42:57;40398.75;;;-141.02;100.00
8477;BME280;4275;42.854;23.222;2024-01-11T07:45:24;40400.66;;;-141.02;100.00
8477;BME280;4275;42.854;23.222;2024-01-11T07:47:51;40396.81;;;-141.02;100.00
8477;BME280;4275;42.854;23.222;2024-01-11T07:50:18;40379.56;;;-141.02;100.00
8477;BME280;4275;42.854;23.222;2024-01-11T07:52:46;40446.69;;;-141.02;100.00
8477;BME280;4275;42.854;23.222;2024-01-11T07:55:13;40440.94;;;-141.02;100.00
8477;BME280;4275;42.854;23.222;2024-01-11T07:57:40;40427.50;;;-141.02;100.00
8477;BME280;4275;42.854;23.222;2024-01-11T08:00:08;40406.41;;;-141.02;100.00
8477;BME280;4275;42.854;23.222;2024-01-11T08:02:35;40460.13;;;-141.02;100.00
8477;BME280;4275;42.854;23.222;2024-01-11T08:05:03;40425.59;;;-141.02;100.00
8477;BME280;4275;42.854;23.222;2024-01-11T08:07:31;40471.63;;;-141.02;100.00
8477;BME280;4275;42.854;23.222;2024-01-11T08:09:59;40479.31;;;-141.02;100.00
8477;BME280;4275;42.854;23.222;2024-01-11T08:12:26;40490.81;;;-141.02;100.00
8477;BME280;4275;42.854;23.222;2024-01-11T08:14:54;40463.97;;;-141.02;100.00
8477;BME280;4275;42.854;23.222;2024-01-11T08:17:21;40490.81;;;-141.02;100.00
8477;BME280;4275;42.854;23.222;2024-01-11T08:19:48;40475.47;;;-141.02;100.00
8477;BME280;4275;42.854;23.222;2024-01-11T08:22:15;40521.50;;;-141.02;100.00
8477;BME280;4275;42.854;23.222;2024-01-11T08:24:42;40529.19;;;-141.02;100.00
8477;BME280;4275;42.854;23.222;2024-01-11T08:27:10;40590.59;;;-141.02;100.00
8477;BME280;4275;42.854;23.222;2024-01-11T08:29:37;40579.06;;;-141.02;100.00
8477;BME280;4275;42.854;23.222;2024-01-11T08:32:05;40609.75;;;-141.02;100.00
8477;BME280;4275;42.854;23.222;2024-01-11T08:34:32;40605.94;;;-141.02;100.00
8477;BME280;4275;42.854;23.222;2024-01-11T08:36:59;40575.22;;;-141.02;100.00
8477;BME280;4275;42.854;23.222;2024-01-11T08:39:26;40579.06;;;-141.02;100.00
8477;BME280;4275;42.854;23.222;2024-01-11T08:41:52;40627.03;;;-141.02;100.00
8477;BME280;4275;42.854;23.222;2024-01-11T08:44:20;40594.41;;;-141.02;100.00
8477;BME280;4275;42.854;23.222;2024-01-11T08:46:47;40636.63;;;-141.02;100.00
8477;BME280;4275;42.854;23.222;2024-01-11T08:49:14;40644.28;;;-141.02;100.00
8477;BME280;4275;42.854;23.222;2024-01-11T08:51:41;40675.00;;;-141.02;100.00
8477;BME280;4275;42.854;23.222;2024-01-11T08:54:08;40628.94;;;-141.02;100.00
8477;BME280;4275;42.854;23.222;2024-01-11T08:56:36;40675.00;;;-141.02;100.00
8477;BME280;4275;42.854;23.222;2024-01-11T08:59:05;40684.59;;;-141.02;100.00
8477;BME280;4275;42.854;23.222;2024-01-11T09:01:35;40698.00;;;-141.02;100.00
8477;BME280;4275;42.854;23.222;2024-01-11T09:04:03;40744.06;;;-141.02;100.00
8477;BME280;4275;42.854;23.222;2024-01-11T09:06:30;40713.38;;;-141.02;100.00
8477;BME280;4275;42.854;23.222;2024-01-11T09:08:58;40797.78;;;-141.02;100.00
8477;BME280;4275;42.854;23.222;2024-01-11T09:11:25;40755.56;;;-141.02;100.00
8477;BME280;4275;42.854;23.222;2024-01-11T09:13:51;40801.63;;;-141.02;100.00
8477;BME280;4275;42.854;23.222;2024-01-11T09:16:18;40866.84;;;-141.02;100.00
8477;BME280;4275;42.854;23.222;2024-01-11T09:18:47;40878.38;;;-141.02;100.00
8477;BME280;4275;42.854;23.222;2024-01-11T09:21:14;40855.34;;;-141.02;100.00
8477;BME280;4275;42.854;23.222;2024-01-11T09:23:41;40859.19;;;-141.02;100.00
8477;BME280;4275;42.854;23.222;2024-01-11T09:26:08;40905.22;;;-141.02;100.00
8477;BME280;4275;42.854;23.222;2024-01-11T09:28:35;40816.97;;;-141.02;100.00
8477;BME280;4275;42.854;23.222;2024-01-11T09:31:02;40916.75;;;-141.02;100.00
8477;BME280;4275;42.854;23.222;2024-01-11T09:33:28;40939.75;;;-141.02;100.00
8477;BME280;4275;42.854;23.222;2024-01-11T09:35:57;40912.91;;;-141.02;100.00
8477;BME280;4275;42.854;23.222;2024-01-11T09:38:24;40886.03;;;-141.02;100.00
8477;BME280;4275;42.854;23.222;2024-01-11T09:41:01;40924.41;;;-141.02;100.00
8477;BME280;4275;42.854;23.222;2024-01-11T09:43:33;40962.78;;;-141.02;100.00
8477;BME280;4275;42.854;23.222;2024-01-11T09:46:03;40995.41;;;-141.02;100.00
8477;BME280;4275;42.854;23.222;2024-01-11T09:48:31;40974.28;;;-141.02;100.00
8477;BME280;4275;42.854;23.222;2024-01-11T09:51:01;41020.34;;;-141.02;100.00
8477;BME280;4275;42.854;23.222;2024-01-11T09:53:29;41039.53;;;-141.02;100.00
8477;BME280;4275;42.854;23.222;2024-01-11T09:55:58;41039.53;;;-141.02;100.00
8477;BME280;4275;42.854;23.222;2024-01-11T09:58:25;41008.84;;;-141.02;100.00
8477;BME280;4275;42.854;23.222;2024-01-11T10:00:54;40978.13;;;-141.02;100.00
8477;BME280;4275;42.854;23.222;2024-01-11T10:03:23;40981.97;;;-141.02;100.00
8477;BME280;4275;42.854;23.222;2024-01-11T10:05:51;40966.63;;;-141.02;100.00
8477;BME280;4275;42.854;23.222;2024-01-11T10:08:23;41005.00;;;-141.02;100.00
8477;BME280;4275;42.854;23.222;2024-01-11T10:10:50;41035.69;;;-141.02;100.00
8477;BME280;4275;42.854;23.222;2024-01-11T10:13:18;40978.13;;;-141.02;100.00
8477;BME280;4275;42.854;23.222;2024-01-11T10:15:45;40993.47;;;-141.02;100.00
8477;BME280;4275;42.854;23.222;2024-01-11T10:18:12;40987.72;;;-141.02;100.00
8477;BME280;4275;42.854;23.222;2024-01-11T10:20:39;41020.34;;;-141.02;100.00
8477;BME280;4275;42.854;23.222;2024-01-11T10:23:06;41074.06;;;-141.02;100.00
8477;BME280;4275;42.854;23.222;2024-01-11T10:25:35;41104.78;;;-141.02;100.00
8477;BME280;4275;42.854;23.222;2024-01-11T10:28:03;41173.84;;;-141.02;100.00
8477;BME280;4275;42.854;23.222;2024-01-11T10:30:30;41087.50;;;-141.02;100.00
8477;BME280;4275;42.854;23.222;2024-01-11T10:32:58;41177.69;;;-141.02;100.00
8477;BME280;4275;42.854;23.222;2024-01-11T10:35:25;41077.91;;;-141.02;100.00
8477;BME280;4275;42.854;23.222;2024-01-11T10:37:53;41079.81;;;-141.02;100.00
8477;BME280;4275;42.854;23.222;2024-01-11T10:40:20;41051.03;;;-141.02;100.00
8477;BME280;4275;42.854;23.222;2024-01-11T10:42:52;41095.19;;;-141.02;100.00
8477;BME280;4275;42.854;23.222;2024-01-11T10:45:19;41085.59;;;-141.02;100.00
8477;BME280;4275;42.854;23.222;2024-01-11T10:47:51;41217.97;;;-141.02;100.00
8477;BME280;4275;42.854;23.222;2024-01-11T10:50:23;41221.81;;;-141.02;100.00
8477;BME280;4275;42.854;23.222;2024-01-11T10:52:59;41273.63;;;-141.02;100.00
8477;BME280;4275;42.854;23.222;2024-01-11T10:55:31;41265.94;;;-141.02;100.00
8477;BME280;4275;42.854;23.222;2024-01-11T10:58:00;41216.06;;;-141.02;100.00
8477;BME280;4275;42.854;23.222;2024-01-11T11:00:28;41281.31;;;-141.02;100.00
8477;BME280;4275;42.854;23.222;2024-01-11T11:02:55;41292.81;;;-141.02;100.00
8477;BME280;4275;42.854;23.222;2024-01-11T11:05:26;41277.47;;;-141.02;100.00
8477;BME280;4275;42.854;23.222;2024-01-11T11:07:54;41277.47;;;-141.02;100.00
8477;BME280;4275;42.854;23.222;2024-01-11T11:10:22;41300.50;;;-141.02;100.00
8477;BME280;4275;42.854;23.222;2024-01-11T11:12:49;41327.34;;;-141.02;100.00
8477;BME280;4275;42.854;23.222;2024-01-11T11:15:18;41358.06;;;-141.02;100.00
8477;BME280;4275;42.854;23.222;2024-01-11T11:17:49;41302.41;;;-141.02;100.00
8477;BME280;4275;42.854;23.222;2024-01-11T11:20:18;41296.66;;;-141.02;100.00
8477;BME280;4275;42.854;23.222;2024-01-11T11:22:48;41329.28;;;-141.02;100.00
8477;BME280;4275;42.854;23.222;2024-01-11T11:25:30;41361.91;;;-141.02;100.00
8477;BME280;4275;42.854;23.222;2024-01-11T11:27:58;41342.69;;;-141.02;100.00
8477;BME280;4275;42.854;23.222;2024-01-11T11:30:28;41361.91;;;-141.02;100.00
8477;BME280;4275;42.854;23.222;2024-01-11T11:32:55;41394.50;;;-141.02;100.00
8477;BME280;4275;42.854;23.222;2024-01-11T11:35:23;41363.81;;;-141.02;100.00
8477;BME280;4275;42.854;23.222;2024-01-11T11:37:54;41373.41;;;-141.02;100.00
8477;BME280;4275;42.854;23.222;2024-01-11T11:40:32;41415.63;;;-141.02;100.00
8477;BME280;4275;42.854;23.222;2024-01-11T11:43:01;41356.13;;;-141.02;100.00
8477;BME280;4275;42.854;23.222;2024-01-11T11:45:32;41359.97;;;-141.02;100.00
8477;BME280;4275;42.854;23.222;2024-01-11T11:47:59;41377.25;;;-141.02;100.00
8477;BME280;4275;42.854;23.222;2024-01-11T11:50:26;41381.09;;;-141.02;100.00
8477;BME280;4275;42.854;23.222;2024-01-11T11:52:56;41354.22;;;-141.02;100.00
8477;BME280;4275;42.854;23.222;2024-01-11T11:55:24;41454.00;;;-141.02;100.00
8477;BME280;4275;42.854;23.222;2024-01-11T11:57:51;41388.75;;;-141.02;100.00
8477;BME280;4275;42.854;23.222;2024-01-11T12:00:19;41454.00;;;-141.02;100.00
8477;BME280;4275;42.854;23.222;2024-01-11T12:02:47;41517.31;;;-141.02;100.00
8477;BME280;4275;42.854;23.222;2024-01-11T12:05:16;41496.22;;;-141.02;100.00
8477;BME280;4275;42.854;23.222;2024-01-11T12:07:44;41461.69;;;-141.02;100.00
8477;BME280;4275;42.854;23.222;2024-01-11T12:10:11;41477.03;;;-141.02;100.00
8477;BME280;4275;42.854;23.222;2024-01-11T12:12:39;41530.75;;;-141.02;100.00
8477;BME280;4275;42.854;23.222;2024-01-11T12:15:08;41534.59;;;-141.02;100.00
8477;BME280;4275;42.854;23.222;2024-01-11T12:17:35;41488.53;;;-141.02;99.20
8477;BME280;4275;42.854;23.222;2024-01-11T12:20:06;41515.41;;;-141.02;100.00
8477;BME280;4275;42.854;23.222;2024-01-11T12:22:33;41523.09;;;-141.02;100.00
8477;BME280;4275;42.854;23.222;2024-01-11T12:25:01;41430.97;;;-141.02;98.22
8477;BME280;4275;42.854;23.222;2024-01-11T12:27:30;41419.47;;;-141.02;100.00
8477;BME280;4275;42.854;23.222;2024-01-11T12:29:57;41452.09;;;-141.02;100.00
8477;BME280;4275;42.854;23.222;2024-01-11T12:32:24;41396.44;;;-141.02;100.00
8477;BME280;4275;42.854;23.222;2024-01-11T12:34:51;41429.06;;;-141.02;100.00
8477;BME280;4275;42.854;23.222;2024-01-11T12:37:20;41396.44;;;-141.02;100.00
8477;BME280;4275;42.854;23.222;2024-01-11T12:39:47;41356.13;;;-141.02;100.00
8477;BME280;4275;42.854;23.222;2024-01-11T12:42:14;41396.44;;;-141.02;100.00